sensor_id;sensor_type;location;lat;lon;timestamp;pressure;altitude;pressure_sealevel;temperature;humidity
74958;BME280;63741;42.624;26.276;2023-11-22T00:00:28;99135.69;;;10.63;100.00
74958;BME280;63741;42.624;26.276;2023-11-22T00:02:55;99134.66;;;10.54;100.00
74958;BME280;63741;42.624;26.276;2023-11-22T00:05:22;99135.22;;;10.58;100.00
74958;BME280;63741;42.624;26.276;2023-11-22T00:07:49;99126.50;;;10.67;100.00
74958;BME280;63741;42.624;26.276;2023-11-22T00:10:16;99126.22;;;10.70;100.00
74958;BME280;63741;42.624;26.276;2023-11-22T00:12:43;99124.31;;;10.72;100.00
74958;BME280;63741;42.624;26.276;2023-11-22T00:15:10;99121.44;;;10.85;100.00
74958;BME280;63741;42.624;26.276;2023-11-22T00:17:38;99125.56;;;10.78;100.00
74958;BME280;63741;42.624;26.276;2023-11-22T00:20:06;99128.25;;;10.87;100.00
74958;BME280;63741;42.624;26.276;2023-11-22T00:22:34;99130.16;;;10.76;100.00
74958;BME280;63741;42.624;26.276;2023-11-22T00:25:02;99138.94;;;10.76;100.00
74958;BME280;63741;42.624;26.276;2023-11-22T00:27:31;99145.50;;;10.82;100.00
74958;BME280;63741;42.624;26.276;2023-11-22T00:30:00;99144.94;;;10.78;100.00
74958;BME280;63741;42.624;26.276;2023-11-22T00:32:27;99138.38;;;10.73;100.00
74958;BME280;63741;42.624;26.276;2023-11-22T00:34:54;99138.44;;;10.61;100.00
74958;BME280;63741;42.624;26.276;2023-11-22T00:37:21;99137.03;;;10.57;100.00
74958;BME280;63741;42.624;26.276;2023-11-22T00:39:48;99139.56;;;10.59;100.00
74958;BME280;63741;42.624;26.276;2023-11-22T00:42:15;99140.19;;;10.51;100.00
74958;BME280;63741;42.624;26.276;2023-11-22T00:44:46;99135.69;;;10.63;100.00
74958;BME280;63741;42.624;26.276;2023-11-22T00:47:14;99132.06;;;10.64;100.00
74958;BME280;63741;42.624;26.276;2023-11-22T00:49:43;99130.50;;;10.61;100.00
74958;BME280;63741;42.624;26.276;2023-11-22T00:52:10;99123.34;;;10.52;100.00
74958;BME280;63741;42.624;26.276;2023-11-22T00:54:37;99139.22;;;10.52;100.00
74958;BME280;63741;42.624;26.276;2023-11-22T00:57:04;99132.81;;;10.45;100.00
74958;BME280;63741;42.624;26.276;2023-11-22T00:59:33;99134.66;;;10.54;100.00
74958;BME280;63741;42.624;26.276;2023-11-22T01:02:00;99137.16;;;10.56;100.00
74958;BME280;63741;42.624;26.276;2023-11-22T01:04:31;99131.44;;;10.51;100.00
74958;BME280;63741;42.624;26.276;2023-11-22T01:07:00;99127.66;;;10.53;100.00
74958;BME280;63741;42.624;26.276;2023-11-22T01:09:27;99124.69;;;10.37;100.00
74958;BME280;63741;42.624;26.276;2023-11-22T01:11:55;99122.88;;;10.37;100.00
74958;BME280;63741;42.624;26.276;2023-11-22T01:14:22;99111.94;;;10.52;100.00
74958;BME280;63741;42.624;26.276;2023-11-22T01:16:50;99126.84;;;10.53;100.00
74958;BME280;63741;42.624;26.276;2023-11-22T01:19:17;99118.06;;;10.52;100.00
74958;BME280;63741;42.624;26.276;2023-11-22T01:21:44;99113.63;;;10.53;100.00
74958;BME280;63741;42.624;26.276;2023-11-22T01:24:10;99108.66;;;10.59;100.00
74958;BME280;63741;42.624;26.276;2023-11-22T01:26:37;99107.19;;;10.46;100.00
74958;BME280;63741;42.624;26.276;2023-11-22T01:29:05;99103.63;;;10.56;100.00
74958;BME280;63741;42.624;26.276;2023-11-22T01:31:32;99100.59;;;10.40;100.00
74958;BME280;63741;42.624;26.276;2023-11-22T01:33:59;99102.00;;;10.44;100.00
74958;BME280;63741;42.624;26.276;2023-11-22T01:36:27;99096.19;;;10.41;100.00
74958;BME280;63741;42.624;26.276;2023-11-22T01:38:54;99100.44;;;10.32;100.00
74958;BME280;63741;42.624;26.276;2023-11-22T01:41:22;99106.22;;;10.26;100.00
74958;BME280;63741;42.624;26.276;2023-11-22T01:43:49;99102.03;;;10.23;100.00
74958;BME280;63741;42.624;26.276;2023-11-22T01:46:22;99097.34;;;10.27;100.00
74958;BME280;63741;42.624;26.276;2023-11-22T01:48:50;99099.13;;;10.26;100.00
74958;BME280;63741;42.624;26.276;2023-11-22T01:51:22;99102.09;;;10.33;100.00
74958;BME280;63741;42.624;26.276;2023-11-22T01:53:51;99100.75;;;10.38;100.00
74958;BME280;63741;42.624;26.276;2023-11-22T01:56:23;99096.00;;;10.32;100.00
74958;BME280;63741;42.624;26.276;2023-11-22T01:58:52;99087.34;;;10.09;100.00
74958;BME280;63741;42.624;26.276;2023-11-22T02:01:21;99085.63;;;10.08;100.00
74958;BME280;63741;42.624;26.276;2023-11-22T02:03:49;99084.03;;;10.17;100.00
74958;BME280;63741;42.624;26.276;2023-11-22T02:06:16;99071.88;;;10.26;100.00
74958;BME280;63741;42.624;26.276;2023-11-22T02:08:43;99069.13;;;10.27;100.00
74958;BME280;63741;42.624;26.276;2023-11-22T02:11:10;99070.56;;;10.20;100.00
74958;BME280;63741;42.624;26.276;2023-11-22T02:13:37;99075.16;;;10.18;100.00
74958;BME280;63741;42.624;26.276;2023-11-22T02:16:05;99075.25;;;10.17;100.00
74958;BME280;63741;42.624;26.276;2023-11-22T02:18:32;99081.38;;;10.17;100.00
74958;BME280;63741;42.624;26.276;2023-11-22T02:21:00;99075.97;;;9.98;100.00
74958;BME280;63741;42.624;26.276;2023-11-22T02:23:27;99068.50;;;10.03;100.00
74958;BME280;63741;42.624;26.276;2023-11-22T02:25:55;99073.09;;;10.01;100.00
74958;BME280;63741;42.624;26.276;2023-11-22T02:28:22;99069.72;;;9.99;100.00
74958;BME280;63741;42.624;26.276;2023-11-22T02:30:50;99078.19;;;9.93;100.00
74958;BME280;63741;42.624;26.276;2023-11-22T02:33:18;99082.25;;;9.97;100.00
74958;BME280;63741;42.624;26.276;2023-11-22T02:35:45;99079.16;;;9.92;100.00
74958;BME280;63741;42.624;26.276;2023-11-22T02:38:12;99085.72;;;9.97;100.00
74958;BME280;63741;42.624;26.276;2023-11-22T02:40:39;99081.78;;;9.92;100.00
74958;BME280;63741;42.624;26.276;2023-11-22T02:43:06;99076.31;;;9.83;100.00
74958;BME280;63741;42.624;26.276;2023-11-22T02:45:36;99088.13;;;9.68;100.00
74958;BME280;63741;42.624;26.276;2023-11-22T02:48:04;99081.03;;;9.48;100.00
74958;BME280;63741;42.624;26.276;2023-11-22T02:50:34;99083.34;;;9.62;100.00
74958;BME280;63741;42.624;26.276;2023-11-22T02:53:03;99088.13;;;9.68;100.00
74958;BME280;63741;42.624;26.276;2023-11-22T02:55:30;99091.72;;;9.67;100.00
74958;BME280;63741;42.624;26.276;2023-11-22T02:57:57;99095.22;;;9.68;100.00
74958;BME280;63741;42.624;26.276;2023-11-22T03:00:24;99100.63;;;9.66;100.00
74958;BME280;63741;42.624;26.276;2023-11-22T03:02:51;99093.78;;;9.63;100.00
74958;BME280;63741;42.624;26.276;2023-11-22T03:05:23;99086.13;;;9.60;100.00
74958;BME280;63741;42.624;26.276;2023-11-22T03:07:51;99093.78;;;9.63;100.00
74958;BME280;63741;42.624;26.276;2023-11-22T03:10:18;99080.47;;;9.65;100.00
74958;BME280;63741;42.624;26.276;2023-11-22T03:12:45;99085.00;;;9.74;100.00
74958;BME280;63741;42.624;26.276;2023-11-22T03:15:12;99092.72;;;9.66;100.00
74958;BME280;63741;42.624;26.276;2023-11-22T03:17:39;99083.50;;;9.60;100.00
74958;BME280;63741;42.624;26.276;2023-11-22T03:20:06;99084.81;;;9.55;100.00
74958;BME280;63741;42.624;26.276;2023-11-22T03:22:37;99070.53;;;9.57;100.00
74958;BME280;63741;42.624;26.276;2023-11-22T03:25:05;99073.31;;;9.56;100.00
74958;BME280;63741;42.624;26.276;2023-11-22T03:27:32;99063.66;;;9.66;100.00
74958;BME280;63741;42.624;26.276;2023-11-22T03:29:59;99053.16;;;9.76;100.00
74958;BME280;63741;42.624;26.276;2023-11-22T03:32:26;99053.72;;;9.58;100.00
74958;BME280;63741;42.624;26.276;2023-11-22T03:34:55;99045.88;;;9.47;100.00
74958;BME280;63741;42.624;26.276;2023-11-22T03:37:24;99048.78;;;9.33;100.00
74958;BME280;63741;42.624;26.276;2023-11-22T03:39:51;99039.47;;;9.18;100.00
74958;BME280;63741;42.624;26.276;2023-11-22T03:42:18;99050.41;;;9.24;100.00
74958;BME280;63741;42.624;26.276;2023-11-22T03:44:45;99063.13;;;9.08;100.00
74958;BME280;63741;42.624;26.276;2023-11-22T03:47:14;99084.56;;;9.15;100.00
74958;BME280;63741;42.624;26.276;2023-11-22T03:49:41;99079.66;;;9.21;100.00
74958;BME280;63741;42.624;26.276;2023-11-22T03:52:13;99058.03;;;9.39;100.00
74958;BME280;63741;42.624;26.276;2023-11-22T03:54:41;99052.47;;;9.42;100.00
74958;BME280;63741;42.624;26.276;2023-11-22T03:57:08;99059.84;;;9.27;100.00
74958;BME280;63741;42.624;26.276;2023-11-22T03:59:35;99072.34;;;9.25;100.00
74958;BME280;63741;42.624;26.276;2023-11-22T04:02:02;99072.50;;;9.12;100.00
74958;BME280;63741;42.624;26.276;2023-11-22T04:04:29;99076.13;;;9.32;100.00
74958;BME280;63741;42.624;26.276;2023-11-22T04:06:57;99067.38;;;9.43;100.00
74958;BME280;63741;42.624;26.276;2023-11-22T04:09:24;99073.94;;;9.48;100.00
74958;BME280;63741;42.624;26.276;2023-11-22T04:11:51;99082.22;;;9.44;100.00
74958;BME280;63741;42.624;26.276;2023-11-22T04:14:18;99077.41;;;9.49;100.00
74958;BME280;63741;42.624;26.276;2023-11-22T04:16:47;99085.78;;;9.22;100.00
74958;BME280;63741;42.624;26.276;2023-11-22T04:19:15;99093.41;;;9.36;100.00
74958;BME280;63741;42.624;26.276;2023-11-22T04:21:42;99109.59;;;9.43;100.00
74958;BME280;63741;42.624;26.276;2023-11-22T04:24:09;99119.06;;;9.45;100.00
74958;BME280;63741;42.624;26.276;2023-11-22T04:26:36;99125.44;;;9.43;100.00
74958;BME280;63741;42.624;26.276;2023-11-22T04:29:04;99124.63;;;9.31;100.00
74958;BME280;63741;42.624;26.276;2023-11-22T04:31:31;99116.09;;;9.39;100.00
74958;BME280;63741;42.624;26.276;2023-11-22T04:34:01;99125.50;;;9.09;100.00
74958;BME280;63741;42.624;26.276;2023-11-22T04:36:29;99128.13;;;9.09;100.00
74958;BME280;63741;42.624;26.276;2023-11-22T04:38:56;99126.56;;;9.18;100.00
74958;BME280;63741;42.624;26.276;2023-11-22T04:41:23;99135.78;;;9.23;100.00
74958;BME280;63741;42.624;26.276;2023-11-22T04:43:51;99139.16;;;9.25;100.00
74958;BME280;63741;42.624;26.276;2023-11-22T04:46:18;99146.19;;;9.36;100.00
74958;BME280;63741;42.624;26.276;2023-11-22T04:48:45;99153.28;;;9.35;100.00
74958;BME280;63741;42.624;26.276;2023-11-22T04:51:14;99162.16;;;9.34;100.00
74958;BME280;63741;42.624;26.276;2023-11-22T04:53:43;99169.56;;;9.41;100.00
74958;BME280;63741;42.624;26.276;2023-11-22T04:56:10;99172.13;;;9.31;100.00
74958;BME280;63741;42.624;26.276;2023-11-22T04:58:38;99176.78;;;9.27;100.00
74958;BME280;63741;42.624;26.276;2023-11-22T05:01:04;99184.94;;;9.47;100.00
74958;BME280;63741;42.624;26.276;2023-11-22T05:03:32;99190.13;;;9.15;100.00
74958;BME280;63741;42.624;26.276;2023-11-22T05:05:59;99196.72;;;9.20;100.00
74958;BME280;63741;42.624;26.276;2023-11-22T05:08:26;99185.69;;;9.26;100.00
74958;BME280;63741;42.624;26.276;2023-11-22T05:10:54;99188.19;;;9.28;100.00
74958;BME280;63741;42.624;26.276;2023-11-22T05:13:22;99176.81;;;9.16;100.00
74958;BME280;63741;42.624;26.276;2023-11-22T05:15:49;99192.75;;;9.15;100.00
74958;BME280;63741;42.624;26.276;2023-11-22T05:18:19;99180.28;;;9.17;100.00
74958;BME280;63741;42.624;26.276;2023-11-22T05:20:48;99184.38;;;9.09;100.00
74958;BME280;63741;42.624;26.276;2023-11-22T05:23:15;99181.00;;;9.19;100.00
74958;BME280;63741;42.624;26.276;2023-11-22T05:25:42;99189.66;;;9.21;100.00
74958;BME280;63741;42.624;26.276;2023-11-22T05:28:11;99186.88;;;9.22;100.00
74958;BME280;63741;42.624;26.276;2023-11-22T05:30:38;99196.56;;;9.33;100.00
74958;BME280;63741;42.624;26.276;2023-11-22T05:33:07;99194.81;;;9.33;100.00
74958;BME280;63741;42.624;26.276;2023-11-22T05:35:39;99206.78;;;9.15;100.00
74958;BME280;63741;42.624;26.276;2023-11-22T05:38:07;99198.41;;;9.21;100.00
74958;BME280;63741;42.624;26.276;2023-11-22T05:40:38;99214.72;;;9.38;100.00
74958;BME280;63741;42.624;26.276;2023-11-22T05:43:05;99217.22;;;9.39;100.00
74958;BME280;63741;42.624;26.276;2023-11-22T05:45:38;99214.72;;;9.38;100.00
74958;BME280;63741;42.624;26.276;2023-11-22T05:48:11;99214.25;;;9.21;100.00
74958;BME280;63741;42.624;26.276;2023-11-22T05:50:39;99217.97;;;9.30;100.00
74958;BME280;63741;42.624;26.276;2023-11-22T05:53:07;99214.22;;;9.32;100.00
74958;BME280;63741;42.624;26.276;2023-11-22T05:55:35;99212.69;;;9.30;100.00
74958;BME280;63741;42.624;26.276;2023-11-22T05:58:04;99210.59;;;9.45;100.00
74958;BME280;63741;42.624;26.276;2023-11-22T06:00:31;99218.06;;;9.40;100.00
74958;BME280;63741;42.624;26.276;2023-11-22T06:03:03;99208.66;;;9.58;100.00
74958;BME280;63741;42.624;26.276;2023-11-22T06:05:32;99214.09;;;9.45;100.00
74958;BME280;63741;42.624;26.276;2023-11-22T06:08:04;99205.31;;;9.56;100.00
74958;BME280;63741;42.624;26.276;2023-11-22T06:10:35;99209.53;;;9.47;100.00
74958;BME280;63741;42.624;26.276;2023-11-22T06:13:12;99219.72;;;9.41;100.00
74958;BME280;63741;42.624;26.276;2023-11-22T06:15:39;99224.03;;;9.53;100.00
74958;BME280;63741;42.624;26.276;2023-11-22T06:18:10;99233.41;;;9.46;100.00
74958;BME280;63741;42.624;26.276;2023-11-22T06:20:47;99225.72;;;9.65;100.00
74958;BME280;63741;42.624;26.276;2023-11-22T06:23:32;99227.75;;;9.61;100.00
74958;BME280;63741;42.624;26.276;2023-11-22T06:26:05;99222.81;;;9.68;100.00
74958;BME280;63741;42.624;26.276;2023-11-22T06:28:40;99220.06;;;9.70;100.00
74958;BME280;63741;42.624;26.276;2023-11-22T06:31:25;99227.53;;;9.65;100.00
74958;BME280;63741;42.624;26.276;2023-11-22T06:34:03;99232.53;;;9.68;100.00
74958;BME280;63741;42.624;26.276;2023-11-22T06:36:45;99242.50;;;9.75;100.00
74958;BME280;63741;42.624;26.276;2023-11-22T06:39:14;99249.91;;;9.81;100.00
74958;BME280;63741;42.624;26.276;2023-11-22T06:41:43;99255.31;;;9.80;100.00
74958;BME280;63741;42.624;26.276;2023-11-22T06:44:13;99260.31;;;9.94;100.00
74958;BME280;63741;42.624;26.276;2023-11-22T06:46:41;99251.78;;;10.02;100.00
74958;BME280;63741;42.624;26.276;2023-11-22T06:49:18;99252.50;;;10.04;100.00
74958;BME280;63741;42.624;26.276;2023-11-22T06:52:04;99250.34;;;10.09;100.00
74958;BME280;63741;42.624;26.276;2023-11-22T06:54:50;99250.53;;;10.17;100.00
74958;BME280;63741;42.624;26.276;2023-11-22T06:57:23;99243.81;;;10.24;100.00
74958;BME280;63741;42.624;26.276;2023-11-22T07:00:01;99259.88;;;10.21;100.00
74958;BME280;63741;42.624;26.276;2023-11-22T07:02:54;99260.00;;;10.31;100.00
74958;BME280;63741;42.624;26.276;2023-11-22T07:05:24;99272.75;;;10.26;100.00
74958;BME280;63741;42.624;26.276;2023-11-22T07:07:53;99285.09;;;10.36;100.00
74958;BME280;63741;42.624;26.276;2023-11-22T07:10:28;99288.81;;;10.34;100.00
74958;BME280;63741;42.624;26.276;2023-11-22T07:13:18;99277.50;;;10.43;100.00
74958;BME280;63741;42.624;26.276;2023-11-22T07:16:05;99283.50;;;10.45;100.00
74958;BME280;63741;42.624;26.276;2023-11-22T07:18:36;99287.59;;;10.49;100.00
74958;BME280;63741;42.624;26.276;2023-11-22T07:21:04;99288.91;;;10.44;100.00
74958;BME280;63741;42.624;26.276;2023-11-22T07:23:34;99280.22;;;10.53;100.00
74958;BME280;63741;42.624;26.276;2023-11-22T07:26:14;99286.59;;;10.50;100.00
74958;BME280;63741;42.624;26.276;2023-11-22T07:28:42;99273.06;;;10.65;100.00
74958;BME280;63741;42.624;26.276;2023-11-22T07:31:18;99274.81;;;10.75;100.00
74958;BME280;63741;42.624;26.276;2023-11-22T07:33:59;99280.94;;;10.76;100.00
74958;BME280;63741;42.624;26.276;2023-11-22T07:36:29;99291.72;;;10.84;100.00
74958;BME280;63741;42.624;26.276;2023-11-22T07:39:10;99292.88;;;10.91;100.00
74958;BME280;63741;42.624;26.276;2023-11-22T07:41:48;99285.72;;;11.03;100.00
74958;BME280;63741;42.624;26.276;2023-11-22T07:44:23;99300.19;;;10.99;100.00
74958;BME280;63741;42.624;26.276;2023-11-22T07:46:51;99289.75;;;11.07;100.00
74958;BME280;63741;42.624;26.276;2023-11-22T07:49:42;99304.16;;;11.14;100.00
74958;BME280;63741;42.624;26.276;2023-11-22T07:52:18;99309.66;;;11.22;100.00
74958;BME280;63741;42.624;26.276;2023-11-22T07:54:48;99315.09;;;11.21;100.00
74958;BME280;63741;42.624;26.276;2023-11-22T07:57:23;99315.19;;;11.19;100.00
74958;BME280;63741;42.624;26.276;2023-11-22T07:59:54;99319.00;;;11.26;100.00
74958;BME280;63741;42.624;26.276;2023-11-22T08:02:35;99331.31;;;11.37;100.00
74958;BME280;63741;42.624;26.276;2023-11-22T08:05:10;99331.91;;;11.41;100.00
74958;BME280;63741;42.624;26.276;2023-11-22T08:07:39;99329.56;;;11.47;100.00
74958;BME280;63741;42.624;26.276;2023-11-22T08:10:14;99332.13;;;11.58;100.00
74958;BME280;63741;42.624;26.276;2023-11-22T08:12:50;99325.03;;;11.59;100.00
74958;BME280;63741;42.624;26.276;2023-11-22T08:15:26;99329.22;;;11.61;98.94
74958;BME280;63741;42.624;26.276;2023-11-22T08:18:01;99330.84;;;11.53;100.00
74958;BME280;63741;42.624;26.276;2023-11-22T08:20:28;99343.13;;;11.54;100.00
74958;BME280;63741;42.624;26.276;2023-11-22T08:22:58;99338.25;;;11.59;100.00
74958;BME280;63741;42.624;26.276;2023-11-22T08:25:36;99344.34;;;11.50;100.00
74958;BME280;63741;42.624;26.276;2023-11-22T08:28:18;99338.84;;;11.62;100.00
74958;BME280;63741;42.624;26.276;2023-11-22T08:30:59;99340.66;;;11.62;100.00
74958;BME280;63741;42.624;26.276;2023-11-22T08:33:27;99336.75;;;11.56;100.00
74958;BME280;63741;42.624;26.276;2023-11-22T08:35:58;99345.56;;;11.67;100.00
74958;BME280;63741;42.624;26.276;2023-11-22T08:38:51;99344.28;;;11.61;100.00
74958;BME280;63741;42.624;26.276;2023-11-22T08:41:27;99341.88;;;11.58;100.00
74958;BME280;63741;42.624;26.276;2023-11-22T08:44:08;99351.75;;;11.56;100.00
74958;BME280;63741;42.624;26.276;2023-11-22T08:47:02;99348.41;;;11.54;100.00
74958;BME280;63741;42.624;26.276;2023-11-22T08:49:45;99344.00;;;11.64;100.00
74958;BME280;63741;42.624;26.276;2023-11-22T08:52:25;99349.13;;;11.56;100.00
74958;BME280;63741;42.624;26.276;2023-11-22T08:55:08;99349.69;;;11.59;100.00
74958;BME280;63741;42.624;26.276;2023-11-22T08:57:47;99345.56;;;11.67;100.00
74958;BME280;63741;42.624;26.276;2023-11-22T09:00:15;99345.16;;;11.71;100.00
74958;BME280;63741;42.624;26.276;2023-11-22T09:02:54;99350.38;;;11.82;99.94
74958;BME280;63741;42.624;26.276;2023-11-22T09:05:25;99355.34;;;11.97;100.00
74958;BME280;63741;42.624;26.276;2023-11-22T09:08:03;99358.84;;;12.07;100.00
74958;BME280;63741;42.624;26.276;2023-11-22T09:10:47;99348.66;;;12.12;100.00
74958;BME280;63741;42.624;26.276;2023-11-22T09:13:14;99345.06;;;12.23;97.11
74958;BME280;63741;42.624;26.276;2023-11-22T09:15:47;99336.41;;;12.21;94.96
74958;BME280;63741;42.624;26.276;2023-11-22T09:18:33;99331.94;;;12.31;92.83
74958;BME280;63741;42.624;26.276;2023-11-22T09:21:05;99338.38;;;12.28;96.81
74958;BME280;63741;42.624;26.276;2023-11-22T09:23:35;99328.72;;;12.27;96.65
74958;BME280;63741;42.624;26.276;2023-11-22T09:26:08;99324.72;;;12.33;99.26
74958;BME280;63741;42.624;26.276;2023-11-22T09:28:47;99324.16;;;12.39;98.17
74958;BME280;63741;42.624;26.276;2023-11-22T09:31:20;99317.44;;;12.25;100.00
74958;BME280;63741;42.624;26.276;2023-11-22T09:33:47;99316.59;;;12.25;100.00
74958;BME280;63741;42.624;26.276;2023-11-22T09:36:15;99323.16;;;12.21;100.00
74958;BME280;63741;42.624;26.276;2023-11-22T09:38:42;99313.09;;;12.14;100.00
74958;BME280;63741;42.624;26.276;2023-11-22T09:41:15;99311.72;;;12.20;100.00
74958;BME280;63741;42.624;26.276;2023-11-22T09:43:56;99308.50;;;12.26;100.00
74958;BME280;63741;42.624;26.276;2023-11-22T09:46:35;99313.69;;;12.28;100.00
74958;BME280;63741;42.624;26.276;2023-11-22T09:49:23;99326.06;;;12.27;100.00
74958;BME280;63741;42.624;26.276;2023-11-22T09:52:01;99323.88;;;12.32;100.00
74958;BME280;63741;42.624;26.276;2023-11-22T09:54:40;99336.56;;;12.38;100.00
74958;BME280;63741;42.624;26.276;2023-11-22T09:57:23;99333.09;;;12.48;100.00
74958;BME280;63741;42.624;26.276;2023-11-22T10:00:00;99328.34;;;12.42;100.00
74958;BME280;63741;42.624;26.276;2023-11-22T10:02:37;99337.97;;;12.33;100.00
74958;BME280;63741;42.624;26.276;2023-11-22T10:05:14;99337.66;;;12.26;100.00
74958;BME280;63741;42.624;26.276;2023-11-22T10:07:49;99343.81;;;12.27;100.00
74958;BME280;63741;42.624;26.276;2023-11-22T10:10:16;99340.59;;;12.23;100.00
74958;BME280;63741;42.624;26.276;2023-11-22T10:12:55;99338.78;;;12.24;100.00
74958;BME280;63741;42.624;26.276;2023-11-22T10:15:33;99336.56;;;12.19;100.00
74958;BME280;63741;42.624;26.276;2023-11-22T10:18:11;99348.53;;;12.23;100.00
74958;BME280;63741;42.624;26.276;2023-11-22T10:20:51;99344.09;;;12.24;100.00
74958;BME280;63741;42.624;26.276;2023-11-22T10:23:31;99344.78;;;12.16;100.00
74958;BME280;63741;42.624;26.276;2023-11-22T10:26:11;99340.03;;;12.10;100.00
74958;BME280;63741;42.624;26.276;2023-11-22T10:29:07;99346.00;;;12.02;100.00
74958;BME280;63741;42.624;26.276;2023-11-22T10:31:56;99333.03;;;12.09;100.00
74958;BME280;63741;42.624;26.276;2023-11-22T10:34:28;99346.16;;;12.10;100.00
74958;BME280;63741;42.624;26.276;2023-11-22T10:37:05;99341.41;;;12.14;100.00
74958;BME280;63741;42.624;26.276;2023-11-22T10:39:42;99348.94;;;12.09;100.00
74958;BME280;63741;42.624;26.276;2023-11-22T10:42:11;99349.75;;;12.00;100.00
74958;BME280;63741;42.624;26.276;2023-11-22T10:45:03;99338.31;;;11.99;100.00
74958;BME280;63741;42.624;26.276;2023-11-22T10:50:39;99343.34;;;12.02;100.00
74958;BME280;63741;42.624;26.276;2023-11-22T10:53:32;99340.66;;;11.93;100.00
74958;BME280;63741;42.624;26.276;2023-11-22T10:56:19;99346.69;;;12.04;100.00
74958;BME280;63741;42.624;26.276;2023-11-22T10:58:56;99342.19;;;11.95;100.00
74958;BME280;63741;42.624;26.276;2023-11-22T11:01:45;99342.09;;;11.97;100.00
74958;BME280;63741;42.624;26.276;2023-11-22T11:04:29;99352.13;;;12.03;100.00
74958;BME280;63741;42.624;26.276;2023-11-22T11:07:06;99342.38;;;12.13;100.00
74958;BME280;63741;42.624;26.276;2023-11-22T11:09:50;99335.25;;;12.04;100.00
74958;BME280;63741;42.624;26.276;2023-11-22T11:12:53;99330.78;;;12.04;100.00
74958;BME280;63741;42.624;26.276;2023-11-22T11:15:28;99334.44;;;12.13;100.00
74958;BME280;63741;42.624;26.276;2023-11-22T11:17:55;99338.63;;;12.16;100.00
74958;BME280;63741;42.624;26.276;2023-11-22T11:20:59;99340.84;;;12.10;100.00
74958;BME280;63741;42.624;26.276;2023-11-22T11:23:42;99339.03;;;12.11;100.00
74958;BME280;63741;42.624;26.276;2023-11-22T11:26:28;99338.06;;;12.12;100.00
74958;BME280;63741;42.624;26.276;2023-11-22T11:29:34;99325.50;;;12.14;100.00
74958;BME280;63741;42.624;26.276;2023-11-22T11:32:43;99337.50;;;12.18;100.00
74958;BME280;63741;42.624;26.276;2023-11-22T11:35:48;99351.91;;;12.25;100.00
74958;BME280;63741;42.624;26.276;2023-11-22T11:38:39;99345.50;;;12.28;100.00
74958;BME280;63741;42.624;26.276;2023-11-22T11:41:38;99336.84;;;12.26;100.00
74958;BME280;63741;42.624;26.276;2023-11-22T11:44:13;99337.94;;;12.23;100.00
74958;BME280;63741;42.624;26.276;2023-11-22T11:46:55;99344.94;;;12.24;100.00
74958;BME280;63741;42.624;26.276;2023-11-22T11:49:28;99359.03;;;12.34;100.00
74958;BME280;63741;42.624;26.276;2023-11-22T11:52:02;99357.78;;;12.38;100.00
74958;BME280;63741;42.624;26.276;2023-11-22T11:54:52;99351.50;;;12.39;100.00
74958;BME280;63741;42.624;26.276;2023-11-22T11:57:26;99349.28;;;12.45;100.00
74958;BME280;63741;42.624;26.276;2023-11-22T12:00:25;99349.84;;;12.48;100.00
74958;BME280;63741;42.624;26.276;2023-11-22T12:03:16;99350.00;;;12.56;100.00
74958;BME280;63741;42.624;26.276;2023-11-22T12:05:50;99346.50;;;12.56;100.00
74958;BME280;63741;42.624;26.276;2023-11-22T12:08:19;99355.03;;;12.59;100.00
74958;BME280;63741;42.624;26.276;2023-11-22T12:11:03;99369.97;;;12.51;100.00
74958;BME280;63741;42.624;26.276;2023-11-22T12:13:39;99364.09;;;12.57;100.00
74958;BME280;63741;42.624;26.276;2023-11-22T12:16:28;99369.41;;;12.57;100.00
74958;BME280;63741;42.624;26.276;2023-11-22T12:19:04;99368.25;;;12.50;100.00
74958;BME280;63741;42.624;26.276;2023-11-22T12:21:37;99372.47;;;12.62;100.00
74958;BME280;63741;42.624;26.276;2023-11-22T12:24:13;99382.97;;;12.73;100.00
74958;BME280;63741;42.624;26.276;2023-11-22T12:26:52;99380.31;;;12.63;100.00
74958;BME280;63741;42.624;26.276;2023-11-22T12:29:31;99389.81;;;12.66;100.00
74958;BME280;63741;42.624;26.276;2023-11-22T12:32:28;99385.34;;;12.67;100.00
74958;BME280;63741;42.624;26.276;2023-11-22T12:34:55;99387.41;;;12.63;100.00
74958;BME280;63741;42.624;26.276;2023-11-22T12:37:38;99387.28;;;12.64;100.00
74958;BME280;63741;42.624;26.276;2023-11-22T12:40:17;99395.09;;;12.66;100.00
74958;BME280;63741;42.624;26.276;2023-11-22T12:42:50;99406.03;;;12.73;100.00
74958;BME280;63741;42.624;26.276;2023-11-22T12:45:30;99400.69;;;12.63;100.00
74958;BME280;63741;42.624;26.276;2023-11-22T12:48:19;99405.88;;;12.64;100.00
74958;BME280;63741;42.624;26.276;2023-11-22T12:50:56;99406.97;;;12.62;100.00
74958;BME280;63741;42.624;26.276;2023-11-22T12:53:36;99415.09;;;12.70;100.00
74958;BME280;63741;42.624;26.276;2023-11-22T12:56:10;99406.72;;;12.75;100.00
74958;BME280;63741;42.624;26.276;2023-11-22T12:58:46;99409.09;;;12.68;100.00
74958;BME280;63741;42.624;26.276;2023-11-22T13:05:48;99411.59;;;12.79;100.00
74958;BME280;63741;42.624;26.276;2023-11-22T13:08:27;99405.03;;;12.83;100.00
74958;BME280;63741;42.624;26.276;2023-11-22T13:11:05;99397.34;;;12.90;100.00
74958;BME280;63741;42.624;26.276;2023-11-22T13:13:40;99409.94;;;12.88;100.00
74958;BME280;63741;42.624;26.276;2023-11-22T13:16:08;99419.00;;;12.85;100.00
74958;BME280;63741;42.624;26.276;2023-11-22T13:18:47;99417.22;;;12.86;100.00
74958;BME280;63741;42.624;26.276;2023-11-22T13:21:17;99427.25;;;12.92;100.00